createdAt,value
2023-04-20T00:02:09.189Z,6.24
2023-04-20T00:04:40.725Z,6.28
2023-04-20T00:07:12.548Z,6.32
2023-04-20T00:09:44.008Z,6.23
2023-04-20T00:12:15.503Z,6.24
2023-04-20T00:14:48.729Z,6.25
2023-04-20T00:17:20.692Z,6.30
2023-04-20T00:19:52.214Z,6.31
2023-04-20T00:22:24.037Z,6.35
2023-04-20T00:24:55.526Z,6.30
2023-04-20T00:27:27.342Z,6.22
2023-04-20T00:29:58.801Z,6.27
2023-04-20T00:32:30.787Z,6.25
2023-04-20T00:35:02.292Z,6.27
2023-04-20T00:37:34.151Z,6.31
2023-04-20T00:40:05.621Z,6.34
2023-04-20T00:42:37.288Z,6.27
2023-04-20T00:45:08.769Z,6.28
2023-04-20T00:47:40.647Z,6.31
2023-04-20T00:50:12.157Z,6.26
2023-04-20T00:52:43.891Z,6.18
2023-04-20T00:55:15.340Z,6.03
2023-04-20T00:57:46.841Z,5.91
2023-04-20T01:00:18.330Z,5.88
2023-04-20T01:02:50.018Z,5.84
2023-04-20T01:05:21.558Z,5.83
2023-04-20T01:07:53.096Z,5.84
2023-04-20T01:10:24.575Z,5.82
2023-04-20T01:12:56.109Z,5.85
2023-04-20T01:15:27.585Z,5.80
2023-04-20T01:17:59.500Z,5.76
2023-04-20T01:20:30.997Z,5.77
2023-04-20T01:23:02.822Z,5.75
2023-04-20T01:25:34.294Z,5.72
2023-04-20T01:28:06.018Z,5.73
2023-04-20T01:30:37.486Z,5.76
2023-04-20T01:33:09.267Z,5.81
2023-04-20T01:35:40.780Z,5.87
2023-04-20T01:38:14.262Z,5.91
2023-04-20T01:40:45.734Z,5.92
2023-04-20T01:43:17.538Z,5.91
2023-04-20T01:45:49.040Z,5.92
2023-04-20T01:48:20.927Z,5.96
2023-04-20T01:50:52.391Z,6.01
2023-04-20T01:53:24.509Z,5.94
2023-04-20T01:55:55.960Z,6.02
2023-04-20T01:58:27.772Z,5.96
2023-04-20T02:00:59.266Z,6.00
2023-04-20T02:03:31.299Z,6.01
2023-04-20T02:06:02.944Z,5.96
2023-04-20T02:08:34.785Z,6.04
2023-04-20T02:11:06.324Z,6.01
2023-04-20T02:13:38.231Z,5.96
2023-04-20T02:16:09.653Z,5.91
2023-04-20T02:18:41.493Z,5.95
2023-04-20T02:21:12.962Z,6.01
2023-04-20T02:23:45.006Z,5.99
2023-04-20T02:26:16.491Z,6.04
2023-04-20T02:28:48.322Z,6.03
2023-04-20T02:31:19.810Z,6.03
2023-04-20T02:33:51.320Z,6.02
2023-04-20T02:36:22.773Z,6.06
2023-04-20T02:38:54.232Z,6.08
2023-04-20T02:41:25.666Z,6.08
2023-04-20T02:43:57.131Z,6.02
2023-04-20T02:46:28.617Z,6.04
2023-04-20T02:49:00.361Z,6.04
2023-04-20T02:51:31.832Z,6.04
2023-04-20T02:54:03.685Z,6.07
2023-04-20T02:56:35.178Z,6.05
2023-04-20T02:59:07.300Z,6.04
2023-04-20T03:01:38.771Z,6.08
2023-04-20T03:04:10.716Z,6.05
2023-04-20T03:06:42.239Z,6.10
2023-04-20T03:09:14.113Z,6.07
2023-04-20T03:11:45.585Z,6.08
2023-04-20T03:14:17.454Z,6.13
2023-04-20T03:16:49.007Z,6.08
2023-04-20T03:19:20.817Z,6.14
2023-04-20T03:21:52.275Z,6.15
2023-04-20T03:24:23.740Z,6.19
2023-04-20T03:26:55.245Z,6.20
2023-04-20T03:29:26.689Z,6.18
2023-04-20T03:31:58.247Z,6.20
2023-04-20T03:34:29.746Z,6.13
2023-04-20T03:37:01.509Z,6.15
2023-04-20T03:39:32.977Z,6.17
2023-04-20T03:42:04.702Z,6.18
2023-04-20T03:44:36.475Z,6.17
2023-04-20T03:47:07.945Z,6.17
2023-04-20T03:49:39.684Z,6.16
2023-04-20T03:52:11.135Z,6.18
2023-04-20T03:54:42.884Z,6.18
2023-04-20T03:57:14.330Z,6.19
2023-04-20T03:59:46.067Z,6.25
2023-04-20T04:02:17.678Z,6.22
2023-04-20T04:04:49.495Z,6.25
2023-04-20T04:07:20.968Z,6.17
2023-04-20T04:09:52.432Z,6.17
2023-04-20T04:12:23.891Z,6.16
2023-04-20T04:14:55.352Z,6.17
2023-04-20T04:17:26.856Z,6.20
2023-04-20T04:19:58.649Z,6.23
2023-04-20T04:22:30.614Z,6.24
2023-04-20T04:25:02.680Z,6.29
2023-04-20T04:27:34.150Z,6.34
2023-04-20T04:30:05.922Z,6.30
2023-04-20T04:32:37.421Z,6.35
2023-04-20T04:35:09.339Z,6.35
2023-04-20T04:37:40.819Z,6.38
2023-04-20T04:40:12.573Z,6.41
2023-04-20T04:42:44.014Z,6.42
2023-04-20T04:45:15.866Z,6.48
2023-04-20T04:47:47.402Z,6.48
2023-04-20T04:50:18.925Z,6.46
2023-04-20T04:52:50.387Z,6.39
2023-04-20T04:55:21.873Z,6.52
2023-04-20T04:57:53.338Z,6.50
2023-04-20T05:00:24.822Z,6.52
2023-04-20T05:02:56.418Z,6.59
2023-04-20T05:05:27.981Z,6.66
2023-04-20T05:07:59.747Z,6.71
2023-04-20T05:10:31.198Z,6.67
2023-04-20T05:13:02.943Z,6.68
2023-04-20T05:15:34.412Z,6.75
2023-04-20T05:18:06.307Z,6.76
2023-04-20T05:20:37.902Z,6.78
2023-04-20T05:23:09.472Z,6.87
2023-04-20T05:25:41.075Z,6.80
2023-04-20T05:28:12.576Z,6.92
2023-04-20T05:30:44.181Z,6.97
2023-04-20T05:33:16.021Z,7.00
2023-04-20T05:35:47.502Z,6.85
2023-04-20T05:38:19.556Z,7.00
2023-04-20T05:40:51.032Z,7.03
2023-04-20T05:43:22.521Z,7.15
2023-04-20T05:45:54.042Z,7.25
2023-04-20T05:48:26.772Z,7.12
2023-04-20T05:50:59.830Z,7.26
2023-04-20T05:53:31.612Z,7.39
2023-04-20T05:56:03.056Z,7.36
2023-04-20T05:58:38.120Z,7.41
2023-04-20T06:01:09.727Z,7.48
2023-04-20T06:03:41.725Z,7.59
2023-04-20T06:06:14.939Z,7.72
2023-04-20T06:08:48.574Z,7.59
2023-04-20T06:11:20.034Z,7.59
2023-04-20T06:13:51.542Z,7.57
2023-04-20T06:16:23.030Z,7.67
2023-04-20T06:18:54.549Z,7.80
2023-04-20T06:21:26.032Z,7.62
2023-04-20T06:23:57.510Z,7.58
2023-04-20T06:26:29.026Z,7.75
2023-04-20T06:29:00.798Z,7.78
2023-04-20T06:31:32.371Z,7.73
2023-04-20T06:34:04.030Z,7.75
2023-04-20T06:36:35.468Z,7.77
2023-04-20T06:39:07.282Z,7.79
2023-04-20T06:41:38.767Z,7.97
2023-04-20T06:44:10.749Z,8.22
2023-04-20T06:46:42.241Z,8.12
2023-04-20T06:49:13.996Z,8.53
2023-04-20T06:51:45.449Z,8.61
2023-04-20T06:54:17.035Z,8.65
2023-04-20T06:56:48.520Z,8.83
2023-04-20T06:59:20.723Z,8.92
2023-04-20T07:01:52.352Z,8.51
2023-04-20T07:04:24.526Z,8.51
2023-04-20T07:06:56.021Z,8.95
2023-04-20T07:09:27.796Z,9.27
2023-04-20T07:11:59.266Z,9.44
2023-04-20T07:14:31.114Z,9.65
2023-04-20T07:17:03.034Z,9.33
2023-04-20T07:19:34.506Z,9.36
2023-04-20T07:22:06.391Z,9.39
2023-04-20T07:24:37.841Z,9.23
2023-04-20T07:27:09.597Z,9.00
2023-04-20T07:29:41.110Z,9.19
2023-04-20T07:32:12.985Z,9.01
2023-04-20T07:34:44.520Z,9.39
2023-04-20T07:37:16.308Z,9.57
2023-04-20T07:39:47.758Z,9.65
2023-04-20T07:42:19.452Z,9.77
2023-04-20T07:44:51.046Z,9.85
2023-04-20T07:47:22.971Z,10.11
2023-04-20T07:49:54.878Z,9.58
2023-04-20T07:52:26.676Z,9.51
2023-04-20T07:54:58.129Z,9.97
2023-04-20T07:57:29.758Z,9.73
2023-04-20T08:00:01.200Z,9.78
2023-04-20T08:02:33.090Z,10.10
2023-04-20T08:05:04.853Z,10.36
2023-04-20T08:07:36.765Z,10.39
2023-04-20T08:10:08.321Z,10.68
2023-04-20T08:12:40.163Z,11.28
2023-04-20T08:15:11.736Z,11.45
2023-04-20T08:17:43.321Z,11.55
2023-04-20T08:20:14.811Z,12.41
2023-04-20T08:22:46.336Z,12.79
2023-04-20T08:25:17.775Z,12.93
2023-04-20T08:27:49.442Z,12.57
2023-04-20T08:30:20.893Z,12.30
2023-04-20T08:32:52.392Z,12.15
2023-04-20T08:35:23.853Z,11.84
2023-04-20T08:37:55.380Z,11.24
2023-04-20T08:40:26.824Z,10.84
2023-04-20T08:42:58.287Z,10.97
2023-04-20T08:45:29.739Z,10.91
2023-04-20T08:48:01.208Z,10.74
2023-04-20T08:50:32.686Z,10.75
2023-04-20T08:53:04.453Z,10.37
2023-04-20T08:55:35.934Z,10.09
2023-04-20T08:58:07.418Z,9.88
2023-04-20T09:00:38.854Z,9.78
2023-04-20T09:03:10.764Z,9.52
2023-04-20T09:05:42.438Z,9.47
2023-04-20T09:08:14.262Z,9.61
2023-04-20T09:10:45.709Z,9.78
2023-04-20T09:13:17.470Z,9.64
2023-04-20T09:15:48.912Z,9.63
2023-04-20T09:18:20.359Z,9.53
2023-04-20T09:20:51.806Z,9.56
2023-04-20T09:23:23.530Z,9.67
2023-04-20T09:25:54.962Z,9.74
2023-04-20T09:28:26.700Z,9.81
2023-04-20T09:30:58.122Z,9.68
2023-04-20T09:33:29.757Z,9.83
2023-04-20T09:36:01.194Z,9.96
2023-04-20T09:38:32.918Z,10.02
2023-04-20T09:41:04.361Z,10.01
2023-04-20T09:43:36.340Z,10.08
2023-04-20T09:46:07.903Z,10.18
2023-04-20T09:48:39.665Z,10.46
2023-04-20T09:51:11.113Z,10.82
2023-04-20T09:53:42.586Z,10.94
2023-04-20T09:56:14.030Z,11.36
2023-04-20T09:58:45.500Z,12.09
2023-04-20T10:01:16.979Z,12.39
2023-04-20T10:03:48.831Z,12.73
2023-04-20T10:06:20.306Z,13.11
2023-04-20T10:08:51.785Z,13.63
2023-04-20T10:11:23.224Z,14.22
2023-04-20T10:13:54.667Z,14.19
2023-04-20T10:16:26.420Z,13.57
2023-04-20T10:18:57.921Z,12.84
2023-04-20T10:21:29.386Z,12.84
2023-04-20T10:24:01.350Z,12.75
2023-04-20T10:26:33.076Z,12.83
2023-04-20T10:29:05.047Z,13.08
2023-04-20T10:31:36.513Z,13.31
2023-04-20T10:34:08.354Z,14.54
2023-04-20T10:36:39.828Z,14.98
2023-04-20T10:39:11.573Z,14.48
2023-04-20T10:41:43.022Z,15.18
2023-04-20T10:44:15.068Z,15.27
2023-04-20T10:46:46.600Z,14.79
2023-04-20T10:49:18.837Z,14.52
2023-04-20T10:51:50.815Z,14.04
2023-04-20T10:54:22.269Z,14.50
2023-04-20T10:56:53.770Z,14.49
2023-04-20T10:59:25.283Z,14.49
2023-04-20T11:01:56.786Z,14.41
2023-04-20T11:04:28.581Z,14.46
2023-04-20T11:07:00.400Z,14.53
2023-04-20T11:09:31.846Z,14.58
2023-04-20T11:12:03.319Z,14.86
2023-04-20T11:14:34.753Z,14.99
2023-04-20T11:17:06.591Z,15.32
2023-04-20T11:19:38.090Z,14.64
2023-04-20T11:22:09.711Z,14.44
2023-04-20T11:24:41.153Z,14.24
2023-04-20T11:27:13.004Z,14.15
2023-04-20T11:29:44.446Z,13.59
2023-04-20T11:32:16.303Z,13.69
2023-04-20T11:34:50.223Z,13.22
2023-04-20T11:37:25.029Z,13.29
2023-04-20T11:39:56.469Z,13.22
2023-04-20T11:42:28.492Z,13.13
2023-04-20T11:44:59.948Z,12.96
2023-04-20T11:47:31.756Z,13.49
2023-04-20T11:50:03.240Z,13.66
2023-04-20T11:52:35.047Z,14.08
2023-04-20T11:55:06.541Z,14.51
2023-04-20T11:57:38.407Z,15.02
2023-04-20T12:00:09.852Z,16.08
2023-04-20T12:02:41.776Z,17.44
2023-04-20T12:05:13.551Z,16.97
2023-04-20T12:07:46.483Z,16.37
2023-04-20T12:10:17.937Z,16.64
2023-04-20T12:12:49.408Z,17.80
2023-04-20T12:15:20.871Z,18.03
2023-04-20T12:17:52.351Z,18.12
2023-04-20T12:20:23.851Z,18.10
2023-04-20T12:22:56.687Z,17.78
2023-04-20T12:25:29.944Z,16.64
2023-04-20T12:28:01.568Z,16.64
2023-04-20T12:30:33.011Z,15.79
2023-04-20T12:33:04.778Z,16.27
2023-04-20T12:35:36.306Z,16.27
2023-04-20T12:38:08.078Z,16.92
2023-04-20T12:40:39.528Z,17.94
2023-04-20T12:43:11.402Z,18.22
2023-04-20T12:45:42.839Z,18.93
2023-04-20T12:48:14.632Z,18.22
2023-04-20T12:50:46.131Z,17.57
2023-04-20T12:53:17.879Z,18.48
2023-04-20T12:55:55.079Z,19.39
2023-04-20T12:58:32.542Z,18.93
2023-04-20T13:01:04.066Z,18.43
2023-04-20T13:03:36.298Z,17.65
2023-04-20T13:06:07.832Z,17.67
2023-04-20T13:08:39.821Z,17.46
2023-04-20T13:11:11.267Z,19.21
2023-04-20T13:13:42.995Z,19.55
2023-04-20T13:16:14.497Z,20.83
2023-04-20T13:18:46.365Z,21.07
2023-04-20T13:21:17.835Z,20.69
2023-04-20T13:23:49.328Z,21.49
2023-04-20T13:26:20.769Z,21.76
2023-04-20T13:28:52.228Z,20.73
2023-04-20T13:31:23.746Z,20.84
2023-04-20T13:33:55.222Z,21.51
2023-04-20T13:36:26.726Z,20.27
2023-04-20T13:38:58.437Z,20.69
2023-04-20T13:41:29.883Z,21.11
2023-04-20T13:44:01.855Z,19.65
2023-04-20T13:46:33.387Z,19.27
2023-04-20T13:49:05.197Z,19.72
2023-04-20T13:51:36.856Z,20.51
2023-04-20T13:54:08.319Z,19.61
2023-04-20T13:56:40.142Z,20.32
2023-04-20T13:59:11.593Z,20.04
2023-04-20T14:01:43.149Z,20.83
2023-04-20T14:04:14.745Z,21.10
2023-04-20T14:06:46.606Z,21.26
2023-04-20T14:09:18.055Z,22.34
2023-04-20T14:11:53.389Z,21.22
2023-04-20T14:14:26.423Z,19.97
2023-04-20T14:16:58.162Z,19.10
2023-04-20T14:19:29.602Z,18.97
2023-04-20T14:22:01.091Z,18.08
2023-04-20T14:24:32.547Z,18.53
2023-04-20T14:27:04.478Z,18.01
2023-04-20T14:29:35.949Z,18.27
2023-04-20T14:32:07.414Z,18.46
2023-04-20T14:34:38.875Z,17.88
2023-04-20T14:37:10.595Z,18.06
2023-04-20T14:39:42.034Z,18.46
2023-04-20T14:42:13.484Z,17.98
2023-04-20T14:44:44.931Z,18.46
2023-04-20T14:47:16.798Z,18.44
2023-04-20T14:49:48.253Z,18.52
2023-04-20T14:52:19.761Z,18.51
2023-04-20T14:54:51.224Z,18.58
2023-04-20T14:57:22.693Z,18.34
2023-04-20T14:59:54.155Z,18.95
2023-04-20T15:02:25.885Z,19.09
2023-04-20T15:04:57.875Z,20.23
2023-04-20T15:07:29.651Z,20.22
2023-04-20T15:10:01.227Z,21.50
2023-04-20T15:12:32.983Z,21.27
2023-04-20T15:15:04.454Z,19.34
2023-04-20T15:17:36.341Z,18.71
2023-04-20T15:20:07.805Z,18.17
2023-04-20T15:22:39.631Z,17.62
2023-04-20T15:25:11.465Z,17.83
2023-04-20T15:27:42.958Z,17.71
2023-04-20T15:30:14.915Z,17.83
2023-04-20T15:32:46.458Z,17.37
2023-04-20T15:35:18.232Z,17.74
2023-04-20T15:37:49.701Z,17.90
2023-04-20T15:40:21.149Z,17.76
2023-04-20T15:42:52.597Z,17.31
2023-04-20T15:45:24.568Z,17.08
2023-04-20T15:47:56.133Z,17.26
2023-04-20T15:50:27.840Z,17.40
2023-04-20T15:52:59.287Z,17.46
2023-04-20T15:55:31.210Z,17.26
2023-04-20T15:58:02.689Z,17.02
2023-04-20T16:00:34.164Z,17.12
2023-04-20T16:03:05.876Z,17.32
2023-04-20T16:05:37.445Z,17.34
2023-04-20T16:08:08.888Z,17.29
2023-04-20T16:10:40.803Z,17.17
2023-04-20T16:13:12.266Z,16.98
2023-04-20T16:15:44.055Z,17.23
2023-04-20T16:18:15.574Z,16.15
2023-04-20T16:20:47.034Z,17.02
2023-04-20T16:23:18.498Z,16.80
2023-04-20T16:25:49.953Z,16.39
2023-04-20T16:28:21.454Z,16.53
2023-04-20T16:30:52.931Z,16.34
2023-04-20T16:33:24.820Z,16.25
2023-04-20T16:35:56.292Z,16.35
2023-04-20T16:38:27.741Z,16.35
2023-04-20T16:40:59.352Z,16.22
2023-04-20T16:43:30.774Z,16.55
2023-04-20T16:46:02.231Z,16.90
2023-04-20T16:48:33.680Z,16.99
2023-04-20T16:51:05.333Z,17.02
2023-04-20T16:53:36.813Z,17.02
2023-04-20T16:56:10.276Z,16.87
2023-04-20T16:58:42.887Z,16.38
2023-04-20T17:01:14.744Z,16.55
2023-04-20T17:03:46.426Z,16.54
2023-04-20T17:06:17.956Z,16.44
2023-04-20T17:08:49.512Z,16.49
2023-04-20T17:11:21.332Z,16.22
2023-04-20T17:13:52.822Z,16.09
2023-04-20T17:16:24.665Z,16.02
2023-04-20T17:18:56.133Z,15.76
2023-04-20T17:21:27.957Z,15.79
2023-04-20T17:23:59.420Z,15.63
2023-04-20T17:26:31.224Z,15.50
2023-04-20T17:29:02.663Z,15.43
2023-04-20T17:31:34.436Z,15.31
2023-04-20T17:34:05.931Z,15.24
2023-04-20T17:36:37.803Z,15.17
2023-04-20T17:39:09.327Z,15.13
2023-04-20T17:41:41.132Z,15.04
2023-04-20T17:44:12.581Z,14.93
2023-04-20T17:46:44.395Z,14.85
2023-04-20T17:49:15.860Z,14.80
2023-04-20T17:51:47.659Z,14.73
2023-04-20T17:54:19.326Z,14.66
2023-04-20T17:56:51.012Z,14.64
2023-04-20T17:59:22.484Z,14.53
2023-04-20T18:01:54.063Z,14.51
2023-04-20T18:04:26.191Z,14.45
2023-04-20T18:06:58.166Z,14.39
2023-04-20T18:09:29.649Z,14.29
2023-04-20T18:12:01.397Z,14.23
2023-04-20T18:14:32.852Z,14.19
2023-04-20T18:17:04.385Z,14.09
2023-04-20T18:19:35.850Z,13.99
2023-04-20T18:22:07.326Z,13.95
2023-04-20T18:24:38.772Z,13.87
2023-04-20T18:27:10.647Z,13.83
2023-04-20T18:29:42.194Z,13.78
2023-04-20T18:32:13.966Z,13.74
2023-04-20T18:34:45.406Z,13.68
2023-04-20T18:37:17.150Z,13.55
2023-04-20T18:39:48.680Z,13.61
2023-04-20T18:42:20.140Z,13.54
2023-04-20T18:44:51.797Z,13.49
2023-04-20T18:47:23.418Z,13.43
2023-04-20T18:49:55.066Z,13.42
2023-04-20T18:52:26.561Z,13.37
2023-04-20T18:54:58.561Z,13.33
2023-04-20T18:57:30.075Z,13.32
2023-04-20T19:00:01.811Z,13.26
2023-04-20T19:02:33.482Z,13.21
2023-04-20T19:05:05.334Z,13.18
2023-04-20T19:07:36.791Z,13.12
2023-04-20T19:10:08.526Z,13.12
2023-04-20T19:12:40.082Z,13.09
2023-04-20T19:15:11.952Z,13.06
2023-04-20T19:17:43.430Z,13.04
2023-04-20T19:20:15.399Z,12.99
2023-04-20T19:22:46.855Z,12.99
2023-04-20T19:25:18.589Z,12.94
2023-04-20T19:27:50.031Z,12.91
2023-04-20T19:30:21.678Z,12.88
2023-04-20T19:32:53.223Z,12.83
2023-04-20T19:35:24.737Z,12.80
2023-04-20T19:37:56.189Z,12.78
2023-04-20T19:40:27.998Z,12.75
2023-04-20T19:42:59.454Z,12.75
2023-04-20T19:45:31.085Z,12.70
2023-04-20T19:48:02.577Z,12.70
2023-04-20T19:50:34.497Z,12.68
2023-04-20T19:53:05.956Z,12.61
2023-04-20T19:55:37.682Z,12.58
2023-04-20T19:58:09.195Z,12.55
2023-04-20T20:00:41.041Z,12.54
2023-04-20T20:03:12.595Z,12.53
2023-04-20T20:05:44.398Z,12.48
2023-04-20T20:08:15.885Z,12.45
2023-04-20T20:10:47.360Z,12.42
2023-04-20T20:13:18.796Z,12.41
2023-04-20T20:15:50.309Z,12.35
2023-04-20T20:18:21.797Z,12.35
2023-04-20T20:20:53.291Z,12.28
2023-04-20T20:23:24.731Z,12.26
2023-04-20T20:25:56.220Z,12.21
2023-04-20T20:28:27.671Z,12.16
2023-04-20T20:30:59.513Z,12.13
2023-04-20T20:33:30.996Z,12.07
2023-04-20T20:36:02.722Z,12.03
2023-04-20T20:38:34.197Z,12.02
2023-04-20T20:41:05.999Z,11.95
2023-04-20T20:43:37.467Z,11.91
2023-04-20T20:46:09.038Z,11.91
2023-04-20T20:48:40.511Z,11.86
2023-04-20T20:51:12.339Z,11.84
2023-04-20T20:53:43.778Z,11.83
2023-04-20T20:56:15.796Z,11.80
2023-04-20T20:58:47.249Z,11.80
2023-04-20T21:01:19.081Z,11.78
2023-04-20T21:03:50.794Z,11.75
2023-04-20T21:06:22.581Z,11.72
2023-04-20T21:08:54.088Z,11.68
2023-04-20T21:11:25.854Z,11.67
2023-04-20T21:13:57.298Z,11.65
2023-04-20T21:16:29.199Z,11.62
2023-04-20T21:19:00.670Z,11.59
2023-04-20T21:21:32.490Z,11.54
2023-04-20T21:24:03.950Z,11.51
2023-04-20T21:26:35.817Z,11.51
2023-04-20T21:29:07.336Z,11.49
2023-04-20T21:31:39.197Z,11.44
2023-04-20T21:34:10.674Z,11.44
2023-04-20T21:36:42.594Z,11.40
2023-04-20T21:39:14.065Z,11.40
2023-04-20T21:41:45.861Z,11.38
2023-04-20T21:44:17.309Z,11.39
2023-04-20T21:46:49.082Z,11.36
2023-04-20T21:49:20.674Z,11.37
2023-04-20T21:51:52.190Z,11.34
2023-04-20T21:54:23.993Z,11.32
2023-04-20T21:56:55.429Z,11.31
2023-04-20T21:59:27.237Z,11.31
2023-04-20T22:01:58.833Z,11.25
2023-04-20T22:04:30.687Z,11.20
2023-04-20T22:07:02.194Z,11.23
2023-04-20T22:09:33.947Z,11.17
2023-04-20T22:12:05.416Z,11.16
2023-04-20T22:14:36.889Z,11.12
2023-04-20T22:17:08.345Z,11.12
2023-04-20T22:19:40.198Z,11.09
2023-04-20T22:22:11.641Z,11.11
2023-04-20T22:24:43.443Z,11.07
2023-04-20T22:27:14.904Z,11.03
2023-04-20T22:29:46.364Z,11.01
2023-04-20T22:32:17.805Z,11.00
2023-04-20T22:34:49.366Z,10.98
2023-04-20T22:37:20.823Z,10.95
2023-04-20T22:39:52.279Z,10.95
2023-04-20T22:42:23.718Z,10.93
2023-04-20T22:44:55.176Z,10.91
2023-04-20T22:47:26.653Z,10.89
2023-04-20T22:49:58.347Z,10.91
2023-04-20T22:52:29.859Z,10.89
2023-04-20T22:55:01.737Z,10.89
2023-04-20T22:57:33.266Z,10.88
2023-04-20T23:00:05.082Z,10.84
2023-04-20T23:02:36.712Z,10.84
2023-04-20T23:05:08.951Z,10.83
2023-04-20T23:07:40.728Z,10.78
2023-04-20T23:10:12.623Z,10.77
2023-04-20T23:12:44.130Z,10.76
2023-04-20T23:15:15.957Z,10.74
2023-04-20T23:17:47.477Z,10.72
2023-04-20T23:20:19.200Z,10.69
2023-04-20T23:22:50.667Z,10.68
2023-04-20T23:25:22.397Z,10.69
2023-04-20T23:27:53.895Z,10.65
2023-04-20T23:30:25.610Z,10.63
2023-04-20T23:32:57.118Z,10.59
2023-04-20T23:35:28.955Z,10.58
2023-04-20T23:38:00.428Z,10.58
2023-04-20T23:40:32.244Z,10.58
2023-04-20T23:43:03.785Z,10.58
2023-04-20T23:45:35.686Z,10.59
2023-04-20T23:48:07.224Z,10.59
2023-04-20T23:50:39.277Z,10.58
2023-04-20T23:53:10.730Z,10.60
2023-04-20T23:55:42.520Z,10.62
2023-04-20T23:58:14.439Z,10.61
